createdAt,value
2022-11-10T00:00:53.341Z,14.40
2022-11-10T00:03:40.367Z,14.40
2022-11-10T00:06:38.613Z,14.40
2022-11-10T00:09:24.585Z,14.40
2022-11-10T00:12:10.538Z,14.40
2022-11-10T00:15:15.460Z,14.40
2022-11-10T00:18:04.190Z,14.40
2022-11-10T00:20:50.479Z,14.40
2022-11-10T00:23:37.259Z,14.40
2022-11-10T00:26:23.621Z,14.40
2022-11-10T00:29:09.864Z,14.40
2022-11-10T00:31:56.231Z,14.40
2022-11-10T00:34:42.750Z,14.40
2022-11-10T00:37:29.112Z,14.40
2022-11-10T00:40:15.403Z,14.40
2022-11-10T00:43:01.259Z,14.40
2022-11-10T00:45:49.661Z,14.40
2022-11-10T00:48:36.003Z,14.40
2022-11-10T00:51:28.050Z,14.50
2022-11-10T00:54:14.368Z,14.50
2022-11-10T00:57:00.370Z,14.40
2022-11-10T00:59:46.494Z,14.40
2022-11-10T01:02:33.026Z,14.40
2022-11-10T01:05:19.601Z,14.40
2022-11-10T01:08:05.994Z,14.40
2022-11-10T01:10:52.436Z,14.40
2022-11-10T01:13:38.907Z,14.40
2022-11-10T01:16:30.163Z,14.40
2022-11-10T01:19:16.115Z,14.30
2022-11-10T01:22:02.370Z,14.30
2022-11-10T01:24:48.412Z,14.30
2022-11-10T01:27:34.422Z,14.40
2022-11-10T01:30:20.686Z,14.30
2022-11-10T01:33:07.408Z,14.30
2022-11-10T01:35:53.504Z,14.40
2022-11-10T01:38:41.953Z,14.30
2022-11-10T01:41:28.026Z,14.30
2022-11-10T01:44:20.382Z,14.30
2022-11-10T01:47:06.171Z,14.30
2022-11-10T01:49:51.915Z,14.30
2022-11-10T01:52:37.946Z,14.30
2022-11-10T01:55:24.733Z,14.30
2022-11-10T01:58:13.954Z,14.30
2022-11-10T02:01:00.026Z,14.30
2022-11-10T02:03:49.507Z,14.30
2022-11-10T02:06:39.336Z,14.30
2022-11-10T02:09:25.816Z,14.30
2022-11-10T02:12:12.358Z,14.30
2022-11-10T02:14:58.550Z,14.30
2022-11-10T02:17:47.680Z,14.30
2022-11-10T02:20:34.255Z,14.20
2022-11-10T02:23:34.239Z,14.30
2022-11-10T02:26:30.793Z,14.30
2022-11-10T02:29:17.161Z,14.30
2022-11-10T02:32:03.079Z,14.20
2022-11-10T02:34:49.859Z,14.20
2022-11-10T02:37:36.003Z,14.30
2022-11-10T02:40:21.814Z,14.20
2022-11-10T02:43:13.636Z,14.20
2022-11-10T02:45:59.539Z,14.20
2022-11-10T02:48:45.540Z,14.20
2022-11-10T02:51:31.567Z,14.20
2022-11-10T02:54:17.556Z,14.30
2022-11-10T02:57:03.545Z,14.30
2022-11-10T02:59:49.682Z,14.30
2022-11-10T03:02:35.924Z,14.20
2022-11-10T03:05:22.339Z,14.20
2022-11-10T03:08:08.235Z,14.30
2022-11-10T03:10:56.443Z,14.30
2022-11-10T03:14:00.191Z,14.30
2022-11-10T03:16:48.028Z,14.30
2022-11-10T03:19:34.348Z,14.30
2022-11-10T03:22:20.332Z,14.30
2022-11-10T03:25:06.955Z,14.30
2022-11-10T03:27:52.988Z,14.30
2022-11-10T03:30:39.631Z,14.10
2022-11-10T03:33:26.374Z,14.10
2022-11-10T03:36:12.588Z,14.00
2022-11-10T03:38:58.831Z,14.00
2022-11-10T03:41:45.374Z,14.10
2022-11-10T03:44:31.777Z,14.20
2022-11-10T03:47:17.941Z,14.30
2022-11-10T03:50:04.682Z,14.30
2022-11-10T03:52:51.053Z,14.30
2022-11-10T03:55:37.405Z,14.30
2022-11-10T03:58:23.259Z,14.30
2022-11-10T04:01:09.451Z,14.30
2022-11-10T04:03:56.706Z,14.30
2022-11-10T04:07:01.466Z,14.30
2022-11-10T04:09:47.659Z,14.30
2022-11-10T04:12:52.105Z,14.30
2022-11-10T04:15:44.107Z,14.30
2022-11-10T04:18:30.357Z,14.30
2022-11-10T04:21:16.100Z,14.30
2022-11-10T04:24:02.002Z,14.30
2022-11-10T04:26:49.059Z,14.30
2022-11-10T04:29:35.167Z,14.30
2022-11-10T04:32:21.431Z,14.30
2022-11-10T04:35:07.564Z,14.30
2022-11-10T04:37:53.491Z,14.30
2022-11-10T04:40:39.369Z,14.30
2022-11-10T04:43:25.388Z,14.30
2022-11-10T04:46:31.987Z,14.30
2022-11-10T04:49:18.865Z,14.30
2022-11-10T04:52:05.402Z,14.30
2022-11-10T04:54:51.596Z,14.30
2022-11-10T04:57:37.776Z,14.30
2022-11-10T05:00:24.092Z,14.30
2022-11-10T05:03:11.816Z,14.30
2022-11-10T05:05:58.063Z,14.30
2022-11-10T05:08:44.940Z,14.30
2022-11-10T05:11:31.020Z,14.30
2022-11-10T05:14:17.232Z,14.30
2022-11-10T05:17:03.645Z,14.30
2022-11-10T05:19:49.960Z,14.30
2022-11-10T05:22:35.930Z,14.30
2022-11-10T05:25:22.395Z,14.30
2022-11-10T05:28:10.788Z,14.30
2022-11-10T05:30:57.169Z,14.30
2022-11-10T05:33:43.474Z,14.30
2022-11-10T05:36:29.445Z,14.20
2022-11-10T05:39:15.296Z,14.30
2022-11-10T05:42:01.498Z,14.40
2022-11-10T05:44:47.395Z,14.40
2022-11-10T05:47:37.202Z,14.40
2022-11-10T05:50:24.563Z,14.40
2022-11-10T05:53:10.560Z,14.40
2022-11-10T05:55:56.904Z,14.40
2022-11-10T05:58:42.856Z,14.40
2022-11-10T06:01:28.508Z,14.40
2022-11-10T06:04:14.776Z,14.40
2022-11-10T06:07:00.627Z,14.40
2022-11-10T06:09:48.477Z,14.40
2022-11-10T06:12:34.912Z,14.40
2022-11-10T06:15:21.386Z,14.20
2022-11-10T06:18:07.714Z,14.30
2022-11-10T06:20:54.201Z,14.30
2022-11-10T06:23:39.968Z,14.40
2022-11-10T06:26:25.817Z,14.30
2022-11-10T06:29:11.805Z,14.40
2022-11-10T06:31:58.227Z,14.40
2022-11-10T06:34:44.460Z,14.40
2022-11-10T06:37:30.314Z,14.40
2022-11-10T06:40:16.409Z,14.40
2022-11-10T06:43:02.607Z,14.40
2022-11-10T06:45:48.733Z,14.50
2022-11-10T06:48:34.473Z,14.40
2022-11-10T06:51:20.810Z,14.40
2022-11-10T06:54:07.180Z,14.40
2022-11-10T06:56:53.274Z,14.40
2022-11-10T06:59:39.235Z,14.40
2022-11-10T07:02:25.056Z,14.40
2022-11-10T07:05:11.034Z,14.40
2022-11-10T07:08:01.373Z,14.40
2022-11-10T07:10:52.905Z,14.40
2022-11-10T07:13:38.987Z,14.50
2022-11-10T07:16:24.841Z,14.50
2022-11-10T07:19:10.674Z,14.50
2022-11-10T07:21:56.386Z,14.50
2022-11-10T07:24:42.419Z,14.50
2022-11-10T07:27:28.834Z,14.50
2022-11-10T07:30:15.306Z,14.60
2022-11-10T07:33:11.640Z,14.60
2022-11-10T07:36:00.074Z,14.60
2022-11-10T07:38:46.253Z,14.60
2022-11-10T07:41:32.644Z,14.60
2022-11-10T07:44:18.658Z,14.60
2022-11-10T07:47:04.660Z,14.70
2022-11-10T07:49:50.904Z,14.70
2022-11-10T07:52:37.096Z,14.70
2022-11-10T07:55:23.023Z,14.70
2022-11-10T07:58:10.005Z,14.70
2022-11-10T08:00:55.754Z,14.70
2022-11-10T08:03:41.467Z,14.80
2022-11-10T08:06:28.486Z,14.80
2022-11-10T08:09:16.292Z,14.70
2022-11-10T08:12:02.319Z,14.90
2022-11-10T08:14:48.487Z,14.90
2022-11-10T08:17:34.743Z,15.00
2022-11-10T08:20:20.471Z,15.00
2022-11-10T08:23:07.314Z,15.00
2022-11-10T08:25:53.518Z,15.10
2022-11-10T08:28:39.561Z,15.10
2022-11-10T08:31:25.632Z,15.10
2022-11-10T08:34:11.997Z,15.10
2022-11-10T08:36:57.708Z,15.10
2022-11-10T08:39:43.911Z,15.10
2022-11-10T08:42:29.695Z,15.10
2022-11-10T08:45:15.596Z,15.10
2022-11-10T08:48:06.229Z,15.10
2022-11-10T08:50:52.677Z,15.20
2022-11-10T08:53:38.586Z,15.20
2022-11-10T08:56:25.059Z,15.10
2022-11-10T08:59:11.129Z,15.10
2022-11-10T09:01:58.050Z,15.10
2022-11-10T09:04:44.074Z,15.10
2022-11-10T09:07:31.479Z,15.10
2022-11-10T09:10:17.263Z,15.20
2022-11-10T09:13:05.097Z,15.20
2022-11-10T09:15:52.055Z,15.20
2022-11-10T09:18:38.309Z,15.20
2022-11-10T09:21:24.034Z,15.20
2022-11-10T09:24:09.944Z,15.10
2022-11-10T09:26:56.145Z,15.10
2022-11-10T09:29:42.268Z,15.20
2022-11-10T09:32:28.231Z,15.20
2022-11-10T09:35:15.627Z,15.20
2022-11-10T09:38:01.507Z,15.30
2022-11-10T09:41:11.169Z,15.30
2022-11-10T09:44:05.920Z,15.40
2022-11-10T09:47:03.066Z,15.40
2022-11-10T09:49:57.728Z,15.40
2022-11-10T09:52:45.731Z,15.30
2022-11-10T09:55:35.137Z,15.30
2022-11-10T09:58:26.409Z,15.30
2022-11-10T10:01:12.988Z,15.40
2022-11-10T10:04:22.181Z,15.40
2022-11-10T10:07:18.106Z,15.40
2022-11-10T10:10:20.468Z,15.40
2022-11-10T10:13:36.870Z,15.40
2022-11-10T10:16:35.334Z,15.40
2022-11-10T10:19:48.856Z,15.50
2022-11-10T10:23:04.553Z,15.50
2022-11-10T10:25:53.251Z,15.50
2022-11-10T10:28:42.086Z,15.50
2022-11-10T10:31:36.019Z,15.50
2022-11-10T10:34:26.022Z,15.60
2022-11-10T10:37:38.824Z,15.70
2022-11-10T10:40:25.599Z,15.80
2022-11-10T10:43:12.314Z,15.90
2022-11-10T10:46:10.683Z,16.00
2022-11-10T10:49:27.478Z,16.10
2022-11-10T10:52:16.877Z,16.20
2022-11-10T10:55:07.431Z,16.40
2022-11-10T10:58:02.723Z,17.00
2022-11-10T11:00:52.444Z,18.90
2022-11-10T11:03:53.450Z,21.40
2022-11-10T11:06:39.617Z,23.90
2022-11-10T11:09:30.609Z,25.20
2022-11-10T11:12:22.345Z,25.30
2022-11-10T11:15:29.451Z,24.80
2022-11-10T11:18:20.653Z,24.20
2022-11-10T11:21:15.915Z,23.30
2022-11-10T11:24:20.358Z,22.20
2022-11-10T11:27:15.430Z,21.20
2022-11-10T11:30:21.850Z,20.40
2022-11-10T11:33:36.316Z,19.60
2022-11-10T11:36:40.730Z,19.00
2022-11-10T11:39:54.973Z,18.70
2022-11-10T11:43:01.142Z,18.80
2022-11-10T11:45:58.140Z,19.30
2022-11-10T11:49:07.935Z,19.70
2022-11-10T11:52:17.002Z,19.70
2022-11-10T11:55:18.459Z,19.40
2022-11-10T11:58:13.170Z,19.20
2022-11-10T12:01:21.166Z,19.20
2022-11-10T12:04:54.573Z,20.40
2022-11-10T12:07:55.547Z,20.50
2022-11-10T12:10:48.057Z,20.10
2022-11-10T12:13:38.812Z,19.50
2022-11-10T12:16:31.415Z,19.00
2022-11-10T12:20:05.386Z,18.60
2022-11-10T12:23:26.864Z,18.20
2022-11-10T12:26:43.306Z,17.80
2022-11-10T12:29:41.539Z,17.50
2022-11-10T12:32:48.696Z,17.40
2022-11-10T12:35:39.635Z,17.30
2022-11-10T12:38:46.297Z,17.20
2022-11-10T12:41:56.075Z,17.20
2022-11-10T12:45:02.263Z,17.10
2022-11-10T12:47:49.654Z,17.00
2022-11-10T12:50:35.327Z,17.10
2022-11-10T12:53:30.703Z,17.00
2022-11-10T12:56:22.745Z,17.00
2022-11-10T12:59:15.522Z,16.90
2022-11-10T13:02:29.235Z,17.00
2022-11-10T13:05:15.571Z,17.10
2022-11-10T13:08:14.019Z,18.80
2022-11-10T13:11:07.606Z,21.20
2022-11-10T13:14:01.361Z,22.50
2022-11-10T13:16:52.216Z,22.30
2022-11-10T13:19:39.166Z,21.40
2022-11-10T13:22:29.451Z,20.60
2022-11-10T13:25:39.815Z,19.70
2022-11-10T13:28:47.711Z,19.30
2022-11-10T13:31:34.308Z,19.00
2022-11-10T13:34:30.749Z,18.90
2022-11-10T13:37:34.941Z,18.80
2022-11-10T13:40:28.447Z,18.60
2022-11-10T13:43:25.431Z,18.40
2022-11-10T13:46:11.850Z,18.20
2022-11-10T13:49:35.536Z,18.10
2022-11-10T13:52:27.267Z,17.90
2022-11-10T13:55:32.164Z,17.90
2022-11-10T13:58:42.523Z,17.90
2022-11-10T14:01:30.519Z,17.80
2022-11-10T14:04:35.876Z,17.80
2022-11-10T14:07:22.672Z,17.70
2022-11-10T14:10:17.168Z,17.60
2022-11-10T14:13:14.284Z,17.60
2022-11-10T14:16:00.951Z,17.60
2022-11-10T14:19:31.913Z,17.60
2022-11-10T14:22:41.961Z,17.60
2022-11-10T14:25:39.229Z,17.50
2022-11-10T14:28:30.715Z,17.50
2022-11-10T14:31:23.465Z,17.60
2022-11-10T14:34:15.718Z,17.50
2022-11-10T14:37:03.619Z,17.50
2022-11-10T14:39:56.980Z,17.50
2022-11-10T14:42:46.446Z,17.50
2022-11-10T14:45:32.293Z,17.50
2022-11-10T14:48:21.342Z,17.50
2022-11-10T14:51:18.623Z,17.40
2022-11-10T14:54:04.688Z,17.40
2022-11-10T14:56:51.141Z,17.40
2022-11-10T14:59:37.952Z,17.30
2022-11-10T15:02:23.993Z,17.20
2022-11-10T15:05:15.690Z,17.20
2022-11-10T15:08:04.284Z,17.00
2022-11-10T15:10:53.320Z,17.00
2022-11-10T15:13:39.825Z,17.00
2022-11-10T15:16:28.160Z,17.00
2022-11-10T15:19:32.324Z,16.90
2022-11-10T15:22:29.659Z,16.80
2022-11-10T15:25:18.636Z,16.70
2022-11-10T15:28:13.939Z,16.70
2022-11-10T15:31:03.573Z,16.70
2022-11-10T15:33:53.958Z,16.60
2022-11-10T15:36:40.106Z,16.60
2022-11-10T15:39:27.454Z,16.60
2022-11-10T15:42:18.047Z,16.50
2022-11-10T15:45:05.147Z,16.40
2022-11-10T15:47:51.498Z,16.40
2022-11-10T15:50:37.922Z,16.40
2022-11-10T15:53:38.604Z,16.30
2022-11-10T15:56:25.529Z,16.20
2022-11-10T15:59:11.940Z,16.20
2022-11-10T16:01:57.865Z,16.10
2022-11-10T16:04:44.297Z,16.10
2022-11-10T16:07:30.097Z,16.00
2022-11-10T16:10:16.099Z,16.00
2022-11-10T16:13:02.024Z,15.80
2022-11-10T16:15:48.125Z,15.60
2022-11-10T16:18:34.187Z,15.60
2022-11-10T16:21:23.783Z,15.70
2022-11-10T16:24:09.626Z,15.70
2022-11-10T16:26:55.627Z,15.70
2022-11-10T16:29:43.342Z,15.70
2022-11-10T16:32:29.342Z,15.70
2022-11-10T16:35:15.647Z,15.60
2022-11-10T16:38:02.426Z,15.60
2022-11-10T16:40:57.649Z,15.50
2022-11-10T16:43:43.668Z,15.40
2022-11-10T16:46:30.444Z,15.30
2022-11-10T16:49:34.211Z,15.30
2022-11-10T16:52:22.942Z,15.30
2022-11-10T16:55:13.866Z,15.30
2022-11-10T16:57:59.827Z,15.40
2022-11-10T17:00:48.130Z,15.30
2022-11-10T17:03:38.095Z,15.30
2022-11-10T17:06:26.474Z,15.30
2022-11-10T17:09:25.635Z,15.40
2022-11-10T17:12:14.924Z,15.30
2022-11-10T17:15:00.832Z,15.40
2022-11-10T17:17:50.549Z,15.40
2022-11-10T17:20:40.892Z,15.40
2022-11-10T17:23:27.635Z,15.30
2022-11-10T17:26:16.761Z,15.30
2022-11-10T17:29:03.237Z,15.30
2022-11-10T17:31:52.934Z,15.30
2022-11-10T17:34:39.213Z,15.30
2022-11-10T17:37:26.527Z,15.20
2022-11-10T17:40:25.317Z,15.20
2022-11-10T17:43:15.054Z,15.20
2022-11-10T17:46:01.163Z,15.10
2022-11-10T17:48:47.959Z,15.10
2022-11-10T17:51:34.911Z,15.10
2022-11-10T17:54:20.991Z,15.10
2022-11-10T17:57:10.196Z,15.00
2022-11-10T17:59:56.562Z,14.90
2022-11-10T18:02:44.167Z,14.90
2022-11-10T18:05:30.129Z,14.90
2022-11-10T18:08:17.176Z,14.80
2022-11-10T18:11:03.719Z,14.80
2022-11-10T18:13:49.830Z,14.80
2022-11-10T18:16:35.634Z,14.80
2022-11-10T18:19:21.927Z,14.70
2022-11-10T18:22:07.838Z,14.70
2022-11-10T18:24:53.740Z,14.70
2022-11-10T18:27:40.033Z,14.70
2022-11-10T18:30:25.838Z,14.60
2022-11-10T18:33:13.298Z,14.70
2022-11-10T18:36:00.432Z,14.60
2022-11-10T18:38:55.526Z,14.60
2022-11-10T18:41:51.047Z,14.60
2022-11-10T18:44:37.757Z,14.60
2022-11-10T18:47:23.860Z,14.60
2022-11-10T18:50:10.494Z,14.50
2022-11-10T18:52:56.831Z,14.50
2022-11-10T18:55:45.550Z,14.50
2022-11-10T18:58:32.142Z,14.40
2022-11-10T19:01:18.779Z,14.40
2022-11-10T19:04:04.897Z,14.30
2022-11-10T19:06:50.828Z,14.30
2022-11-10T19:09:37.176Z,14.40
2022-11-10T19:12:26.525Z,14.40
2022-11-10T19:15:13.168Z,14.40
2022-11-10T19:17:59.410Z,14.40
2022-11-10T19:20:45.564Z,14.40
2022-11-10T19:23:31.370Z,14.40
2022-11-10T19:26:22.911Z,14.40
2022-11-10T19:29:09.995Z,14.30
2022-11-10T19:31:56.536Z,14.30
2022-11-10T19:34:42.941Z,14.30
2022-11-10T19:37:33.446Z,14.30
2022-11-10T19:40:21.399Z,14.20
2022-11-10T19:43:08.508Z,14.20
2022-11-10T19:45:54.408Z,14.10
2022-11-10T19:48:41.042Z,14.00
2022-11-10T19:51:28.599Z,14.00
2022-11-10T19:54:14.608Z,14.00
2022-11-10T19:57:01.235Z,14.00
2022-11-10T19:59:47.188Z,14.00
2022-11-10T20:02:33.354Z,14.00
2022-11-10T20:05:19.258Z,14.00
2022-11-10T20:08:12.582Z,13.90
2022-11-10T20:11:01.857Z,13.90
2022-11-10T20:13:54.255Z,13.90
2022-11-10T20:16:41.154Z,13.90
2022-11-10T20:19:27.141Z,13.90
2022-11-10T20:22:12.928Z,13.80
2022-11-10T20:24:59.588Z,13.80
2022-11-10T20:27:46.129Z,13.80
2022-11-10T20:30:35.432Z,13.70
2022-11-10T20:33:22.892Z,13.70
2022-11-10T20:36:20.655Z,13.70
2022-11-10T20:39:07.858Z,13.70
2022-11-10T20:41:57.263Z,13.70
2022-11-10T20:44:43.566Z,13.70
2022-11-10T20:47:30.855Z,13.60
2022-11-10T20:50:21.806Z,13.60
2022-11-10T20:53:13.252Z,13.60
2022-11-10T20:56:02.171Z,13.60
2022-11-10T20:58:50.110Z,13.60
2022-11-10T21:01:38.772Z,13.50
2022-11-10T21:07:28.428Z,13.50
2022-11-10T21:10:15.271Z,13.50
2022-11-10T21:13:01.526Z,13.50
2022-11-10T21:15:53.639Z,13.50
2022-11-10T21:18:39.578Z,13.50
2022-11-10T21:21:34.034Z,13.50
2022-11-10T21:24:20.073Z,13.50
2022-11-10T21:27:06.358Z,13.40
2022-11-10T21:29:52.873Z,13.40
2022-11-10T21:32:39.122Z,13.40
2022-11-10T21:35:26.186Z,13.40
2022-11-10T21:38:13.235Z,13.40
2022-11-10T21:40:59.418Z,13.40
2022-11-10T21:43:45.415Z,13.40
2022-11-10T21:46:31.560Z,13.40
2022-11-10T21:49:17.388Z,13.30
2022-11-10T21:52:03.811Z,13.30
2022-11-10T21:54:50.097Z,13.30
2022-11-10T21:57:36.245Z,13.30
2022-11-10T22:00:22.340Z,13.20
2022-11-10T22:03:08.242Z,13.20
2022-11-10T22:05:54.213Z,13.20
2022-11-10T22:08:41.161Z,13.20
2022-11-10T22:11:45.493Z,13.10
2022-11-10T22:14:49.796Z,13.10
2022-11-10T22:17:54.092Z,13.00
2022-11-10T22:20:39.882Z,13.00
2022-11-10T22:23:45.701Z,13.00
2022-11-10T22:26:32.083Z,13.00
2022-11-10T22:29:18.066Z,12.90
2022-11-10T22:32:03.987Z,12.90
2022-11-10T22:34:50.072Z,12.90
2022-11-10T22:37:36.131Z,12.80
2022-11-10T22:40:41.396Z,12.80
2022-11-10T22:43:46.149Z,12.80
2022-11-10T22:46:41.136Z,12.80
2022-11-10T22:49:27.385Z,12.80
2022-11-10T22:52:13.739Z,12.70
2022-11-10T22:54:59.689Z,12.70
2022-11-10T22:57:46.094Z,12.70
2022-11-10T23:00:32.506Z,12.70
2022-11-10T23:03:18.608Z,12.80
2022-11-10T23:06:05.043Z,12.70
2022-11-10T23:08:51.509Z,12.70
2022-11-10T23:11:37.260Z,12.70
2022-11-10T23:14:23.255Z,12.70
2022-11-10T23:17:09.352Z,12.60
2022-11-10T23:19:56.334Z,12.60
2022-11-10T23:22:42.317Z,12.60
2022-11-10T23:25:28.411Z,12.60
2022-11-10T23:28:15.161Z,12.60
2022-11-10T23:31:07.599Z,12.50
2022-11-10T23:33:55.335Z,12.50
2022-11-10T23:36:42.133Z,12.50
2022-11-10T23:39:27.863Z,12.40
2022-11-10T23:42:13.879Z,12.40
2022-11-10T23:44:59.827Z,12.40
2022-11-10T23:47:45.634Z,12.40
2022-11-10T23:50:31.464Z,12.40
2022-11-10T23:53:18.841Z,12.40
2022-11-10T23:56:07.463Z,12.30
2022-11-10T23:58:53.467Z,12.30
